Wednesday, April 25, 2018, 1:01 AM EDT

KTHV, York Airport

Location: Spring Grove, PA, United States Lat: 39.917
Local Time: 1:01 AM EDT ( 5:01 GMT) Lon: -76.883
Time Zone: US/Eastern Elev: 478 ft

Show me the last for .
Show Decoded

2018-04-25 00:47 METAR KTHV 250447Z AUTO 07008KT 2SM RA BR OVC006 11/11 A2998 RMK AO2 CIG 004V009
                 P0006 =
2018-04-25 00:24 METAR KTHV 250424Z AUTO 06008KT 3SM -RA BR BKN006 OVC014 11/10 A2999 RMK AO2 CIG
                 004V010 P0004 T01060100 =
2018-04-25 00:12 METAR KTHV 250412Z AUTO 06007KT 2 1/2SM -RA BR BKN005 BKN011 OVC016 11/11 A3000
                 RMK AO2 P0003 T01060106 =
2018-04-25 00:10 METAR KTHV 250410Z AUTO 06006KT 3SM -RA BR BKN007 OVC014 11/11 A3000 RMK AO2
                 P0002 T01060106 =
2018-04-24 23:53 METAR KTHV 250353Z AUTO 07010KT 3SM -RA BR SCT007 OVC013 11/11 A3001 RMK AO2
                 SLP164 P0010 T01060106 =
2018-04-24 23:41 METAR KTHV 250341Z AUTO 06009KT 4SM -RA BR SCT008 BKN013 OVC019 11/11 A3002 RMK
                 AO2 P0009 T01060106 =
2018-04-24 23:30 METAR KTHV 250330Z AUTO 07009KT 2 1/2SM RA BR FEW005 BKN013 OVC019 11/11 A3003
                 RMK AO2 P0009 T01060106 =
2018-04-24 23:21 METAR KTHV 250321Z AUTO 08009KT 2SM RA BR SCT008 BKN015 OVC022 11/11 A3004 RMK
                 AO2 PRESFR P0007 T01060106 =
2018-04-24 23:16 METAR KTHV 250316Z AUTO 07007KT 2 1/2SM RA BR SCT010 BKN015 OVC022 11/11 A3004
                 RMK AO2 P0005 T01110106 =
2018-04-24 23:11 METAR KTHV 250311Z AUTO 05004KT 3SM RA BR BKN012 BKN017 OVC022 11/11 A3006 RMK
                 AO2 P0003 T01110106 =
2018-04-24 22:59 METAR KTHV 250259Z AUTO 07006KT 3SM -RA BR SCT007 BKN016 OVC026 11/11 A3006 RMK
                 AO2 P0001 T01110106 =
2018-04-24 22:53 METAR KTHV 250253Z AUTO 07007KT 4SM -RA BR BKN010 BKN018 OVC023 11/11 A3005 RMK
                 AO2 PRESFR SLP179 P0009 60021 T01110106 58013 =
2018-04-24 22:45 METAR KTHV 250245Z AUTO 07007KT 3SM RA BR BKN009 OVC014 11/11 A3006 RMK AO2 CIG
                 005V011 P0008 T01110106 =
2018-04-24 21:53 METAR KTHV 250153Z AUTO 09007KT 3SM -RA BR BKN014 OVC021 11/11 A3009 RMK AO2
                 SLP192 P0008 T01110111 =
2018-04-24 21:21 METAR KTHV 250121Z AUTO 09005KT 4SM -RA BR SCT021 BKN026 OVC048 12/11 A3009 RMK
                 AO2 P0004 T01170106 =
2018-04-24 20:53 METAR KTHV 250053Z AUTO 08005KT 7SM -RA FEW028 BKN055 OVC070 12/11 A3009 RMK AO2
                 SLP193 P0004 T01170106 =
2018-04-24 19:53 METAR KTHV 242353Z AUTO 11007KT 10SM -RA FEW033 SCT046 OVC080 12/10 A3009 RMK
                 AO2 SLP192 P0004 60004 T01220100 10161 20122 56014 =
2018-04-24 18:53 METAR KTHV 242253Z AUTO 12006KT 10SM -RA OVC075 14/09 A3010 RMK AO2 RAB26 SLP197
                 P0000 T01390089 =
2018-04-24 17:53 METAR KTHV 242153Z AUTO 11011KT 10SM BKN055 OVC080 15/08 A3012 RMK AO2 SLP201
                 T01500078 =
2018-04-24 16:53 METAR KTHV 242053Z AUTO 11015G21KT 10SM FEW040 SCT055 16/08 A3013 RMK AO2 SLP207
                 T01560078 56026 =
2018-04-24 15:53 METAR KTHV 241953Z AUTO 11011KT 10SM BKN039 OVC049 16/08 A3015 RMK AO2 SLP214
                 T01560078 =
2018-04-24 14:53 METAR KTHV 241853Z AUTO 12014G22KT 10SM FEW120 16/08 A3019 RMK AO2 SLP226
                 T01610078 =
2018-04-24 13:53 METAR KTHV 241753Z AUTO 13012G20KT 10SM SCT040 SCT055 16/08 A3021 RMK AO2 SLP233
                 T01610083 10172 20111 58022 =
2018-04-24 12:53 METAR KTHV 241653Z AUTO 14014G22KT 10SM CLR 17/08 A3023 RMK AO2 SLP240 T01670078
                 =
2018-04-24 11:53 METAR KTHV 241553Z AUTO 12015G23KT 10SM SCT050 16/08 A3027 RMK AO2 SLP252
                 T01610078 =
2018-04-24 10:53 METAR KTHV 241453Z AUTO 13015G19KT 10SM FEW049 16/07 A3028 RMK AO2 SLP254
                 T01560072 56013 =
2018-04-24 09:53 METAR KTHV 241353Z AUTO 14013G21KT 10SM FEW049 14/06 A3028 RMK AO2 SLP257
                 T01390061 =
2018-04-24 08:53 METAR KTHV 241253Z AUTO 12009KT 10SM SCT047 13/05 A3030 RMK AO2 SLP264 T01330050
                 =
2018-04-24 07:53 METAR KTHV 241153Z AUTO VRB06KT 10SM SCT045 11/03 A3032 RMK AO2 SLP268 T01060033
                 10106 20039 56003 =
2018-04-24 06:53 METAR KTHV 241053Z AUTO 08004KT 10SM CLR 09/03 A3032 RMK AO2 SLP268 T00890028 =
2018-04-24 05:53 METAR KTHV 240953Z AUTO 08003KT 10SM CLR 09/01 A3032 RMK AO2 SLP270 T00890006 =
2018-04-24 04:53 METAR KTHV 240853Z AUTO 00000KT 10SM CLR 07/02 A3032 RMK AO2 SLP271 T00670022
                 56007 =
2018-04-24 03:53 METAR KTHV 240753Z AUTO 00000KT 10SM CLR 06/02 A3033 RMK AO2 SLP274 T00560017 =
2018-04-24 02:53 METAR KTHV 240653Z AUTO 00000KT 10SM CLR 07/01 A3033 RMK AO2 SLP274 T00670006 =
2018-04-24 01:53 METAR KTHV 240553Z AUTO 00000KT 10SM CLR 07/01 A3034 RMK AO2 SLP278 T00720006
                 10156 20067 58007 =

Support USWX by starting your Amazon purchase here.